• Join FlightAware (Why Join?)
  • Login
  • US Flag 
07:13AM EDT


 

Airport Tracker/Info


-or-


 

Live Flight TrackerFlight Track Log ✈ AAL1398 ✈ 11-Apr-2013 ✈ MDSD / SDQ - KMIA

Flight Track Log - Related Links

Times and Time Zones

All times are in EDT time to prevent confusion due to time zone crossing. See the AAL1398 flight status page for this flight to view local times or setup timezone preferences in your user account.

Time Position Orientation Groundspeed Altitude Reporting Facility
EDT Latitude Longitude Course Direction KTS MPH feet Rate Location/Type
12:52PM 18.6053 -69.7844 328° Northwest  Level FlightAware Approximate
12:53PM 18.6931 -69.8422 328° Northwest  Level FlightAware Approximate
12:54PM 18.7808 -69.9001 328° Northwest  Level FlightAware Approximate
12:55PM 18.8686 -69.9581 328° Northwest  Level FlightAware Approximate
12:56PM 18.9563 -70.0161 328° Northwest  Level FlightAware Approximate
12:56PM 18.7236 -69.8358 327° Northwest 470 541 17,000  Level Miami Center
12:57PM 19.0440 -70.0742 328° Northwest  Level FlightAware Approximate
12:57PM 18.8100 -69.9036 323° Northwest 437 503 19,300  Level Miami Center
12:58PM 19.1317 -70.1323 328° Northwest  Level FlightAware Approximate
12:58PM 18.9022 -69.9714 325° Northwest 414 476 21,700  Level Miami Center
12:59PM 19.2063 -70.1880 325° Northwest  Level FlightAware Approximate
12:59PM 18.9756 -70.0269 324° Northwest 409 471 23,600  Level Miami Center
01:00PM 19.2918 -70.2521 325° Northwest  Level FlightAware Approximate
01:00PM 19.0986 -70.0822 337° Northwest 394 453 26,200  Level Miami Center
01:01PM 19.3787 -70.3141 327° Northwest  Level FlightAware Approximate
01:01PM 19.1833 -70.1703 316° Northwest 413 475 28,800  Level Miami Center
01:02PM 19.4669 -70.3740 327° Northwest  Level FlightAware Approximate
01:02PM 19.2744 -70.2536 319° Northwest 413 475 30,300  Level Miami Center
01:03PM 19.3689 -70.3217 326° Northwest 413 475 32,500 2,160 Climbing Miami Center
01:04PM 19.4569 -70.3922 323° Northwest 413 475 34,700 1,740 Climbing Miami Center
01:05PM 19.5472 -70.4583 325° Northwest 402 463 36,000 600 Climbing Miami Center
01:06PM 19.6331 -70.5247 324° Northwest 397 457 36,000  Level Miami Center
01:07PM 19.7233 -70.5911 325° Northwest 397 457 36,000  Level Miami Center
01:08PM 19.8094 -70.6600 323° Northwest 397 457 36,000  Level Miami Center
01:09PM 19.8975 -70.7286 324° Northwest 397 457 36,000  Level Miami Center
01:10PM 19.9811 -70.7933 324° Northwest 397 457 36,000  Level Miami Center
01:11PM 20.0692 -70.8578 325° Northwest 397 457 36,000  Level Miami Center
01:12PM 20.1572 -70.9247 324° Northwest 397 457 36,000  Level Miami Center
01:13PM 20.2450 -70.9917 324° Northwest 397 457 36,000  Level Miami Center
01:14PM 20.3311 -71.0608 323° Northwest 397 457 36,000  Level Miami Center
01:15PM 20.4083 -71.1194 325° Northwest 392 451 36,000  Level Miami Center
01:16PM 20.4719 -71.2075 308° West 385 443 36,000  Level Miami Center
01:17PM 20.5297 -71.3069 302° West 385 443 36,000  Level Miami Center
01:18PM 20.5894 -71.4019 304° West 390 449 36,000  Level Miami Center
01:19PM 20.6489 -71.4947 304° West 390 449 36,000  Level Miami Center
01:20PM 20.7083 -71.5900 304° West 390 449 36,000  Level Miami Center
01:21PM 20.7681 -71.6875 303° West 385 443 36,000  Level Miami Center
01:22PM 20.8253 -71.7806 303° West 380 437 36,000  Level Miami Center
01:23PM 20.8869 -71.8781 304° West 386 444 36,000  Level Miami Center
01:24PM 20.9464 -71.9736 304° West 386 444 36,000  Level Miami Center
01:25PM 21.0036 -72.0694 303° West 380 437 36,000  Level Miami Center
01:26PM 21.0650 -72.1650 305° West 385 443 36,000  Level Miami Center
01:27PM 21.1219 -72.2631 302° West 385 443 36,000  Level Miami Center
01:28PM 21.1833 -72.3611 304° West 385 443 36,000  Level Miami Center
01:29PM 21.2425 -72.4569 304° West 385 443 36,000  Level Miami Center
01:30PM 21.3017 -72.5553 303° West 385 443 36,000  Level Miami Center
01:31PM 21.3628 -72.6536 304° West 385 443 36,000  Level Miami Center
01:32PM 21.4261 -72.7542 304° West 390 449 36,000  Level Miami Center
01:33PM 21.4828 -72.8506 302° West 390 449 36,000  Level Miami Center
01:34PM 21.5417 -72.9492 303° West 390 449 36,000  Level Miami Center
01:35PM 21.6028 -73.0478 304° West 395 455 36,000  Level Miami Center
01:36PM 21.6614 -73.1467 303° West 395 455 36,000  Level Miami Center
01:37PM 21.7200 -73.2433 303° West 395 455 36,000  Level Miami Center
01:38PM 21.7318 -73.2639 303° West  Level FlightAware Approximate
01:38PM 21.7789 -73.3400 303° West 395 455 36,000  Level Miami Center
01:39PM 21.8375 -73.4414 302° West 395 455 36,000  Level Miami Center
01:40PM 21.9044 -73.5447 305° West 401 461 36,000  Level Miami Center
01:41PM 21.9631 -73.6439 303° West 394 453 36,000  Level Miami Center
01:43PM 22.0313 -73.7629 302° West  Level FlightAware Approximate
01:44PM 22.1275 -73.9314 304° West 394 453 36,000  Level Miami Center
01:45PM 22.1836 -74.0311 301° West 394 453 36,000  Level Miami Center
01:46PM 22.2439 -74.1261 304° West 394 453 36,000  Level Miami Center
01:47PM 22.3019 -74.2281 302° West 394 453 36,000  Level Miami Center
01:48PM 22.3600 -74.3258 303° West 394 453 36,000  Level Miami Center
01:49PM 22.4203 -74.4236 304° West 394 453 36,000  Level Miami Center
01:50PM 22.4160 -74.4165 304° West  Level FlightAware Approximate
01:50PM 22.4781 -74.5236 302° West 394 453 36,000  Level Miami Center
01:51PM 22.5381 -74.6214 304° West 394 453 36,000  Level Miami Center
01:52PM 22.5939 -74.7217 301° West 394 453 36,000  Level Miami Center
01:53PM 22.6539 -74.8219 303° West 394 453 36,000  Level Miami Center
01:54PM 22.7114 -74.9200 302° West 394 453 36,000  Level Miami Center
01:55PM 22.7711 -75.0183 303° West 394 453 36,000  Level Miami Center
01:56PM 22.8267 -75.1189 301° West 394 453 36,000  Level Miami Center
01:57PM 22.8842 -75.2175 302° West 389 448 36,000  Level Miami Center
01:58PM 22.9439 -75.3158 303° West 389 448 36,000  Level Miami Center
01:59PM 23.0011 -75.4167 302° West 389 448 36,000  Level Miami Center
02:00PM 23.0628 -75.5244 302° West 384 442 36,000  Level Miami Center
02:01PM 23.1200 -75.6256 302° West 384 442 36,000  Level Miami Center
02:02PM 23.1772 -75.7244 302° West 384 442 36,000  Level Miami Center
02:03PM 23.2344 -75.8278 301° West 384 442 36,000  Level Miami Center
02:04PM 23.2936 -75.9314 302° West 390 449 36,000  Level Miami Center
02:05PM 23.3547 -76.0328 303° West 395 455 36,000  Level Miami Center
02:06PM 23.4117 -76.1344 301° West 400 460 36,000  Level Miami Center
02:07PM 23.4708 -76.2336 303° West 400 460 36,000  Level Miami Center
02:08PM 23.5211 -76.3242 301° West 400 460 36,000  Level Miami Center
02:09PM 23.5800 -76.4258 302° West 400 460 36,000  Level Miami Center
02:10PM 23.6389 -76.5278 302° West 400 460 36,000  Level Miami Center
02:11PM 23.6956 -76.6275 302° West 395 455 36,000  Level Miami Center
02:12PM 23.7519 -76.7294 301° West 395 455 36,000  Level Miami Center
02:13PM 23.8086 -76.8317 301° West 395 455 36,000  Level Miami Center
02:14PM 23.8650 -76.9339 301° West 395 455 36,000  Level Miami Center
02:15PM 23.9214 -77.0361 301° West 390 449 36,000  Level Miami Center
02:16PM 23.9797 -77.1364 302° West 395 455 36,000  Level Miami Center
02:17PM 24.0381 -77.2433 301° West 401 461 36,000  Level Miami Center
02:18PM 24.0961 -77.3506 301° West 401 461 36,000  Level Miami Center
02:19PM 24.1542 -77.4533 302° West 396 456 36,000  Level Miami Center
02:20PM 24.2228 -77.5789 301° West 402 463 36,000  Level Miami Center
02:21PM 24.2869 -77.6933 302° West 402 463 36,000  Level Miami Center
02:22PM 24.3447 -77.7986 301° West 397 457 36,000  Level Miami Center
02:23PM 24.4025 -77.9017 302° West 402 463 36,000  Level Miami Center
02:24PM 24.4583 -78.0072 300° West 402 463 36,000  Level Miami Center
02:25PM 24.5161 -78.1106 302° West 402 463 36,000  Level Miami Center
02:26PM 24.5756 -78.2186 301° West 402 463 36,000  Level Miami Center
02:27PM 24.6311 -78.3219 301° West 402 463 36,000  Level Miami Center
02:28PM 24.6906 -78.4256 302° West 402 463 36,000  Level Miami Center
02:29PM 24.7458 -78.5317 300° West 402 463 36,000 -180 Level Miami Center
02:30PM 24.8011 -78.6353 300° West 397 457 35,700 -1,080 Descending Miami Center
02:31PM 24.8603 -78.7414 302° West 397 457 33,900 -1,620 Descending Miami Center
02:32PM 24.9194 -78.8525 300° West 402 463 32,500 -1,680 Descending Miami Center
02:33PM 24.9828 -78.9567 304° West 408 470 30,600 -2,820 Descending Miami Center
02:34PM 25.0375 -79.0744 297° West 415 478 26,900 -3,420 Descending Miami Center
02:35PM 25.1069 -79.1858 305° West 428 493 23,800 -3,000 Descending Miami Center
02:36PM 25.1656 -79.3017 299° West 433 498 20,900 -2,880 Descending Miami Center
02:37PM 25.2286 -79.4133 302° West 428 493 18,100 -2,640 Descending Miami Center
02:38PM 25.2831 -79.5225 299° West 422 486 15,700 -2,580 Descending Miami Center
02:39PM 25.3072 -79.5758 297° West 406 467 14,500 -2,520 Descending Miami Center
02:39PM 25.3417 -79.6294 305° West 416 479 13,200 -2,280 Descending Miami Center
02:40PM 25.3575 -79.6689 294° West 390 449 12,400 -1,200 Descending Miami Center
02:40PM 25.3942 -79.7272 305° West 396 456 12,000 -540 Descending Miami Center
02:41PM 25.4183 -79.7717 301° West 332 382 11,800 -1,020 Descending Miami Center
02:41PM 25.4467 -79.8114 308° West 362 417 11,000 -1,800 Descending Miami Center
02:42PM 25.4731 -79.8556 304° West 327 376 10,000 -1,020 Descending Miami Center
02:42PM 25.5014 -79.8933 310° West 344 396 10,000 -120 Level Miami Center
02:43PM 25.5217 -79.9328 300° West 330 380 9,900 -120 Descending Miami Center
02:43PM 25.5542 -79.9706 314° West 331 381 9,900 -600 Level Miami Center
02:44PM 25.5722 -80.0078 298° West 284 327 9,300 -1,320 Descending Miami Center
02:44PM 25.6008 -80.0431 312° West 315 362 8,600 -1,320 Descending Miami Center
02:45PM 25.6208 -80.0806 301° West 284 327 8,000 -600 Descending Miami Center
02:45PM 25.6472 -80.1136 312° West 294 338 8,000  Level Miami Center
02:46PM 25.6631 -80.1553 293° West 282 325 8,000  Level Miami Center
02:46PM 25.6789 -80.1928 295° West 286 329 8,000 -120 Level Miami Center
02:47PM 25.6881 -80.2461 281° West 255 293 7,900 -240 Descending Miami Center
02:47PM 25.6981 -80.2694 295° West 270 311 7,800 -900 Descending Miami Center
02:48PM 25.7092 -80.3250 283° West 232 267 6,900 -1,140 Descending Miami Center
02:48PM 25.7111 -80.3389 279° West 255 293 6,700 -1,560 Descending Miami Center
02:49PM 25.7078 -80.3919 266° West 233 268 5,500 -1,800 Descending Miami Center
02:50PM 25.7039 -80.4586 266° West 235 270 3,900 -1,500 Descending Miami Center
02:51PM 25.7558 -80.4692 350° North 237 273 2,600 -1,320 Descending Miami Center